Time;durP1;ratioP1;P1;durP2;ratioP2;P2;SDS_P1;SDS_P2;PMS_P1;PMS_P2;Temp;Humidity;BMP_temperature;BMP_pressure;BME280_temperature;BME280_humidity;BME280_pressure;Samples;Min_cycle;Max_cycle;Signal;HPM_P1;HPM_P2
2023/09/23 00:00:36;;;;;;;6.43;2.95;;;;;;;;;;4973808;28;20049;-82
2023/09/23 00:03:02;;;;;;;4.85;2.90;;;;;;;;;;4977315;28;20510;-83
2023/09/23 00:05:29;;;;;;;3.92;2.30;;;;;;;;;;4990254;28;20037;-82
2023/09/23 00:07:55;;;;;;;5.18;2.60;;;;;;;;;;4974784;28;20039;-83
2023/09/23 00:10:21;;;;;;;5.90;2.63;;;;;;;;;;4987232;28;20532;-82
2023/09/23 00:12:46;;;;;;;5.72;2.55;;;;;;;;;;4975319;28;20030;-82
2023/09/23 00:15:12;;;;;;;3.42;2.30;;;;;;;;;;4989298;28;20517;-82
2023/09/23 00:17:38;;;;;;;4.68;2.55;;;;;;;;;;4989614;28;20049;-82
2023/09/23 00:20:14;;;;;;;5.88;2.40;;;;;;;;;;4971158;28;20104;-82
2023/09/23 00:22:40;;;;;;;6.03;2.72;;;;;;;;;;4989938;28;20041;-82
2023/09/23 00:25:06;;;;;;;7.60;2.42;;;;;;;;;;4972064;28;20140;-82
2023/09/23 00:27:32;;;;;;;5.88;2.58;;;;;;;;;;4969115;28;20125;-83
2023/09/23 00:29:57;;;;;;;6.30;2.17;;;;;;;;;;4986949;28;20137;-82
2023/09/23 00:32:23;;;;;;;3.45;2.38;;;;;;;;;;4971179;28;20050;-83
2023/09/23 00:34:49;;;;;;;10.38;2.60;;;;;;;;;;4987734;28;20045;-82
2023/09/23 00:37:15;;;;;;;3.65;2.30;;;;;;;;;;4991887;28;20046;-82
2023/09/23 00:39:41;;;;;;;6.43;2.25;;;;;;;;;;4971835;28;20075;-83
2023/09/23 00:42:10;;;;;;;4.82;2.50;;;;;;;;;;4982788;28;20046;-82
2023/09/23 00:44:41;;;;;;;5.88;2.53;;;;;;;;;;4988559;28;20554;-83
2023/09/23 00:47:08;;;;;;;4.05;2.30;;;;;;;;;;4968056;28;20093;-82
2023/09/23 00:49:37;;;;;;;6.53;2.50;;;;;;;;;;4978808;28;20053;-83
2023/09/23 00:52:05;;;;;;;6.80;2.45;;;;;;;;;;4977480;28;20029;-82
2023/09/23 00:54:31;;;;;;;3.67;2.30;;;;;;;;;;4986242;28;20091;-82
2023/09/23 00:56:58;;;;;;;4.85;2.28;;;;;;;;;;4986868;28;20436;-82
2023/09/23 00:59:23;;;;;;;7.28;2.38;;;;;;;;;;4987140;28;20082;-83
2023/09/23 01:01:50;;;;;;;4.97;2.40;;;;;;;;;;4987979;28;20493;-82
2023/09/23 01:04:16;;;;;;;4.90;2.45;;;;;;;;;;4986514;28;22303;-82
2023/09/23 01:06:41;;;;;;;5.93;2.30;;;;;;;;;;4983004;28;20038;-82
2023/09/23 01:09:12;;;;;;;4.57;2.20;;;;;;;;;;4991318;28;20033;-83
2023/09/23 01:11:38;;;;;;;3.65;2.10;;;;;;;;;;4986389;28;20478;-82
2023/09/23 01:14:05;;;;;;;5.47;2.60;;;;;;;;;;4994470;28;20045;-81
2023/09/23 01:16:31;;;;;;;5.43;2.30;;;;;;;;;;4993563;28;20062;-82
2023/09/23 01:18:57;;;;;;;5.70;2.53;;;;;;;;;;4973545;28;20366;-83
2023/09/23 01:21:23;;;;;;;4.20;2.30;;;;;;;;;;4960210;28;20038;-82
2023/09/23 01:23:48;;;;;;;5.38;2.40;;;;;;;;;;4982473;28;20562;-82
2023/09/23 01:26:14;;;;;;;4.03;2.40;;;;;;;;;;4984351;28;20039;-82
2023/09/23 01:28:39;;;;;;;4.85;2.33;;;;;;;;;;4987486;28;20041;-82
2023/09/23 01:31:05;;;;;;;5.25;2.47;;;;;;;;;;4985348;28;20039;-82
2023/09/23 01:33:31;;;;;;;6.82;2.88;;;;;;;;;;4988357;28;20038;-82
2023/09/23 01:36:02;;;;;;;5.38;2.72;;;;;;;;;;4969881;28;20034;-82
2023/09/23 01:38:27;;;;;;;4.50;2.33;;;;;;;;;;4972353;28;20050;-82
2023/09/23 01:40:53;;;;;;;6.28;2.72;;;;;;;;;;4989566;28;20050;-82
2023/09/23 01:43:19;;;;;;;4.50;2.10;;;;;;;;;;4987073;28;20049;-83
2023/09/23 01:45:44;;;;;;;5.03;2.15;;;;;;;;;;4967599;28;20633;-83
2023/09/23 01:48:10;;;;;;;3.70;1.98;;;;;;;;;;4986080;28;20490;-82
2023/09/23 01:50:35;;;;;;;5.38;2.40;;;;;;;;;;4971944;28;20084;-82
2023/09/23 01:53:01;;;;;;;4.15;2.00;;;;;;;;;;4973563;28;20034;-83
2023/09/23 01:55:27;;;;;;;6.05;2.30;;;;;;;;;;4954453;28;20029;-82
2023/09/23 01:57:53;;;;;;;3.97;2.10;;;;;;;;;;4965736;28;20562;-83
2023/09/23 02:00:21;;;;;;;4.07;2.20;;;;;;;;;;4953352;28;20038;-83
2023/09/23 02:02:56;;;;;;;4.30;2.10;;;;;;;;;;4980101;28;20042;-82
2023/09/23 02:05:24;;;;;;;3.38;2.00;;;;;;;;;;5006368;28;20426;-83
2023/09/23 02:07:50;;;;;;;4.03;2.00;;;;;;;;;;4966812;28;20559;-83
2023/09/23 02:10:18;;;;;;;4.45;2.00;;;;;;;;;;4981480;28;20498;-82
2023/09/23 02:12:45;;;;;;;5.05;2.10;;;;;;;;;;4989785;28;20079;-82
2023/09/23 02:15:14;;;;;;;4.20;2.08;;;;;;;;;;4975474;28;20035;-82
2023/09/23 02:17:42;;;;;;;3.78;1.80;;;;;;;;;;4991205;28;20397;-82
2023/09/23 02:20:22;;;;;;;4.32;2.00;;;;;;;;;;4977173;28;20068;-82
2023/09/23 02:22:53;;;;;;;3.90;2.00;;;;;;;;;;4958885;28;20073;-82
2023/09/23 02:25:18;;;;;;;3.72;1.88;;;;;;;;;;4971154;28;20050;-82
2023/09/23 02:27:45;;;;;;;5.35;2.03;;;;;;;;;;4988076;28;20489;-81
2023/09/23 02:30:11;;;;;;;3.20;1.98;;;;;;;;;;4957991;28;20089;-82
2023/09/23 02:32:39;;;;;;;4.97;2.10;;;;;;;;;;4967503;28;20101;-81
2023/09/23 02:35:07;;;;;;;3.85;2.15;;;;;;;;;;4967991;28;20030;-82
2023/09/23 02:37:32;;;;;;;3.33;2.03;;;;;;;;;;4982162;28;20157;-82
2023/09/23 02:39:57;;;;;;;3.40;2.15;;;;;;;;;;4983208;28;20031;-82
2023/09/23 02:42:23;;;;;;;4.35;2.20;;;;;;;;;;4989687;28;20053;-82
2023/09/23 02:44:48;;;;;;;3.50;1.70;;;;;;;;;;4988581;28;20078;-82
2023/09/23 02:47:15;;;;;;;6.57;2.10;;;;;;;;;;4981977;28;20031;-81
2023/09/23 02:49:40;;;;;;;3.10;1.70;;;;;;;;;;4980381;28;20485;-83
2023/09/23 02:52:06;;;;;;;3.22;1.70;;;;;;;;;;4967856;28;20126;-82
2023/09/23 02:54:31;;;;;;;4.50;2.03;;;;;;;;;;4990408;28;20034;-82
2023/09/23 02:56:57;;;;;;;3.33;1.70;;;;;;;;;;4990021;28;20096;-82
2023/09/23 02:59:26;;;;;;;4.45;1.83;;;;;;;;;;4984204;28;20495;-82
2023/09/23 03:01:53;;;;;;;3.25;1.77;;;;;;;;;;4986613;28;20030;-82
2023/09/23 03:04:23;;;;;;;4.10;1.90;;;;;;;;;;4959575;28;20039;-82
2023/09/23 03:06:50;;;;;;;3.40;1.85;;;;;;;;;;4984381;28;20461;-82
2023/09/23 03:09:19;;;;;;;3.30;1.60;;;;;;;;;;4978696;28;20069;-82
2023/09/23 03:11:53;;;;;;;3.72;2.20;;;;;;;;;;4993206;28;20121;-81
2023/09/23 03:14:22;;;;;;;4.65;1.70;;;;;;;;;;4991035;28;20038;-82
2023/09/23 03:16:49;;;;;;;4.30;1.70;;;;;;;;;;4977106;28;20041;-82
2023/09/23 03:19:15;;;;;;;4.40;2.00;;;;;;;;;;4972261;28;20457;-82
2023/09/23 03:21:42;;;;;;;4.53;1.70;;;;;;;;;;4995015;28;20118;-82
2023/09/23 03:24:10;;;;;;;2.97;1.70;;;;;;;;;;4976393;28;20404;-82
2023/09/23 03:26:36;;;;;;;3.30;1.65;;;;;;;;;;5007203;28;20505;-82
2023/09/23 03:29:02;;;;;;;4.78;2.10;;;;;;;;;;4981888;28;20037;-82
2023/09/23 03:31:28;;;;;;;3.03;1.63;;;;;;;;;;4987334;28;20456;-82
2023/09/23 03:33:55;;;;;;;3.38;1.60;;;;;;;;;;5008845;28;20042;-82
2023/09/23 03:36:24;;;;;;;4.28;1.50;;;;;;;;;;4989528;28;20036;-83
2023/09/23 03:38:51;;;;;;;3.33;1.42;;;;;;;;;;4992078;28;20038;-82
2023/09/23 03:41:17;;;;;;;3.13;1.57;;;;;;;;;;4985210;28;20041;-82
2023/09/23 03:43:42;;;;;;;5.32;1.70;;;;;;;;;;4996215;28;20068;-82
2023/09/23 03:46:16;;;;;;;3.28;1.40;;;;;;;;;;4973894;28;20152;-82
2023/09/23 03:48:43;;;;;;;2.63;1.30;;;;;;;;;;4979647;28;20037;-83
2023/09/23 03:51:09;;;;;;;3.25;1.15;;;;;;;;;;4986179;28;20088;-82
2023/09/23 03:53:36;;;;;;;3.15;1.25;;;;;;;;;;4966979;28;20485;-82
2023/09/23 03:56:01;;;;;;;5.07;1.60;;;;;;;;;;4976914;28;20482;-82
2023/09/23 03:58:27;;;;;;;4.15;1.23;;;;;;;;;;4983526;28;20038;-81
2023/09/23 04:00:56;;;;;;;3.88;1.40;;;;;;;;;;4986744;28;20026;-82
2023/09/23 04:03:22;;;;;;;2.75;1.33;;;;;;;;;;4993745;28;20046;-82
2023/09/23 04:05:57;;;;;;;3.13;1.25;;;;;;;;;;5002994;28;20860;-83
2023/09/23 04:08:23;;;;;;;2.90;1.20;;;;;;;;;;4973813;28;20408;-82
2023/09/23 04:10:48;;;;;;;2.97;1.40;;;;;;;;;;5007546;28;20044;-82
2023/09/23 04:13:15;;;;;;;3.85;1.40;;;;;;;;;;4989291;28;20057;-81
2023/09/23 04:15:41;;;;;;;3.95;1.27;;;;;;;;;;4991492;28;20396;-83
2023/09/23 04:18:06;;;;;;;2.95;1.40;;;;;;;;;;4973519;28;20038;-83
2023/09/23 04:20:32;;;;;;;3.65;1.17;;;;;;;;;;4978261;28;20180;-82
2023/09/23 04:22:58;;;;;;;2.97;1.45;;;;;;;;;;4974740;28;20045;-82
2023/09/23 04:25:23;;;;;;;3.15;1.17;;;;;;;;;;4990079;28;20030;-82
2023/09/23 04:27:52;;;;;;;2.88;1.08;;;;;;;;;;4977796;28;20083;-82
2023/09/23 04:30:17;;;;;;;2.30;1.13;;;;;;;;;;4979748;28;20478;-82
2023/09/23 04:32:43;;;;;;;2.42;0.93;;;;;;;;;;4987315;28;20085;-82
2023/09/23 04:35:12;;;;;;;3.13;1.10;;;;;;;;;;5006388;28;20493;-82
2023/09/23 04:37:37;;;;;;;3.17;1.10;;;;;;;;;;4987405;28;20528;-82
2023/09/23 04:40:13;;;;;;;4.03;1.20;;;;;;;;;;4990145;28;20048;-82
2023/09/23 04:42:40;;;;;;;2.22;1.10;;;;;;;;;;4968423;28;20069;-82
2023/09/23 04:45:06;;;;;;;3.05;1.10;;;;;;;;;;4977939;28;20044;-82
2023/09/23 04:47:33;;;;;;;;;;;;;;;;;;5008367;28;20636;-82
2023/09/23 04:50:00;;;;;;;2.05;0.80;;;;;;;;;;5009514;28;19914;-82
2023/09/23 04:52:28;;;;;;;3.33;1.13;;;;;;;;;;5001572;28;20029;-83
2023/09/23 04:54:56;;;;;;;2.67;1.00;;;;;;;;;;5005325;28;20038;-82
2023/09/23 04:57:22;;;;;;;2.50;0.93;;;;;;;;;;5005400;28;20115;-83
2023/09/23 04:59:48;;;;;;;2.63;0.90;;;;;;;;;;5004279;28;20514;-83
2023/09/23 05:02:14;;;;;;;3.58;1.10;;;;;;;;;;4991814;28;20037;-82
2023/09/23 05:04:40;;;;;;;2.63;1.02;;;;;;;;;;5009074;28;20052;-82
2023/09/23 05:07:05;;;;;;;2.20;0.90;;;;;;;;;;5004333;28;20030;-82
2023/09/23 05:09:31;;;;;;;2.53;1.17;;;;;;;;;;4979812;28;20038;-82
2023/09/23 05:12:00;;;;;;;2.45;1.00;;;;;;;;;;4987104;28;20048;-83
2023/09/23 05:14:36;;;;;;;2.60;1.00;;;;;;;;;;4991323;28;20422;-84
2023/09/23 05:17:05;;;;;;;3.60;1.00;;;;;;;;;;4985570;28;20034;-84
2023/09/23 05:19:36;;;;;;;1.92;0.90;;;;;;;;;;4998490;28;20032;-84
2023/09/23 05:22:03;;;;;;;2.28;0.90;;;;;;;;;;4984917;28;20524;-84
2023/09/23 05:24:29;;;;;;;2.00;0.93;;;;;;;;;;5001264;28;20494;-83
2023/09/23 05:26:55;;;;;;;3.20;0.90;;;;;;;;;;4988925;28;20143;-83
2023/09/23 05:29:26;;;;;;;1.95;0.73;;;;;;;;;;4968930;28;20505;-83
2023/09/23 05:31:52;;;;;;;3.10;0.98;;;;;;;;;;4992189;28;20514;-83
2023/09/23 05:34:18;;;;;;;4.82;1.15;;;;;;;;;;4990133;28;20040;-84
2023/09/23 05:36:45;;;;;;;2.20;0.90;;;;;;;;;;5006241;28;20041;-84
2023/09/23 05:39:19;;;;;;;1.70;0.73;;;;;;;;;;4988914;28;20105;-83
2023/09/23 05:41:53;;;;;;;2.22;0.80;;;;;;;;;;4980085;28;20549;-84
2023/09/23 05:44:19;;;;;;;2.97;0.90;;;;;;;;;;5003721;28;20497;-84
2023/09/23 05:46:51;;;;;;;2.42;1.20;;;;;;;;;;4985022;28;20046;-84
2023/09/23 05:49:18;;;;;;;2.88;0.75;;;;;;;;;;5007900;28;20041;-83
2023/09/23 05:51:47;;;;;;;;;;;;;;;;;;4981909;28;20064;-84
2023/09/23 05:54:15;;;;;;;3.83;1.02;;;;;;;;;;5009026;28;20392;-84
2023/09/23 05:56:44;;;;;;;2.70;0.88;;;;;;;;;;4997720;28;20037;-83
2023/09/23 05:59:10;;;;;;;2.13;0.90;;;;;;;;;;4984177;28;20064;-83
2023/09/23 06:01:38;;;;;;;2.35;0.82;;;;;;;;;;4994548;28;20363;-83
2023/09/23 06:04:05;;;;;;;2.10;0.80;;;;;;;;;;4999913;28;20112;-83
2023/09/23 06:06:31;;;;;;;2.33;0.90;;;;;;;;;;4980801;28;20045;-83
2023/09/23 06:09:06;;;;;;;3.72;1.00;;;;;;;;;;4982444;28;20072;-83
2023/09/23 06:11:33;;;;;;;4.45;0.93;;;;;;;;;;4990475;28;20426;-83
2023/09/23 06:14:07;;;;;;;2.88;0.70;;;;;;;;;;4986083;28;20026;-83
2023/09/23 06:16:32;;;;;;;2.00;0.82;;;;;;;;;;4993850;28;20044;-83
2023/09/23 06:18:58;;;;;;;3.03;0.80;;;;;;;;;;4988737;28;20133;-83
2023/09/23 06:21:23;;;;;;;3.08;0.73;;;;;;;;;;4975232;28;20042;-83
2023/09/23 06:23:49;;;;;;;2.90;0.98;;;;;;;;;;4990325;28;20037;-83
2023/09/23 06:26:14;;;;;;;2.40;0.85;;;;;;;;;;4996250;28;20046;-83
2023/09/23 06:28:40;;;;;;;2.03;0.70;;;;;;;;;;5005077;28;21006;-82
2023/09/23 06:31:09;;;;;;;2.70;0.80;;;;;;;;;;5008375;28;20037;-83
2023/09/23 06:33:36;;;;;;;2.10;0.60;;;;;;;;;;4989765;28;20514;-83
2023/09/23 06:36:04;;;;;;;3.60;0.70;;;;;;;;;;4997473;28;20645;-83
2023/09/23 06:38:29;;;;;;;3.75;1.10;;;;;;;;;;4993731;28;20120;-82
2023/09/23 06:40:55;;;;;;;2.17;0.70;;;;;;;;;;5009705;28;20494;-81
2023/09/23 06:43:21;;;;;;;2.17;0.70;;;;;;;;;;5004470;28;20046;-81
2023/09/23 06:45:57;;;;;;;2.28;0.70;;;;;;;;;;5006710;28;20038;-81
2023/09/23 06:48:23;;;;;;;2.53;0.90;;;;;;;;;;5011975;28;20034;-81
2023/09/23 06:50:59;;;;;;;3.03;0.88;;;;;;;;;;4991931;28;20037;-82
2023/09/23 06:53:25;;;;;;;2.58;0.50;;;;;;;;;;5008218;28;20037;-82
2023/09/23 06:55:51;;;;;;;2.70;0.60;;;;;;;;;;4994148;28;20484;-81
2023/09/23 06:58:17;;;;;;;2.50;0.68;;;;;;;;;;4992698;28;20834;-81
2023/09/23 07:00:42;;;;;;;1.48;0.52;;;;;;;;;;5007296;28;20036;-81
2023/09/23 07:03:08;;;;;;;2.25;0.63;;;;;;;;;;5001297;28;20525;-81
2023/09/23 07:05:34;;;;;;;3.30;0.80;;;;;;;;;;4995987;28;20490;-82
2023/09/23 07:08:01;;;;;;;2.65;0.50;;;;;;;;;;4993590;28;20062;-82
2023/09/23 07:10:27;;;;;;;3.22;0.50;;;;;;;;;;5006125;28;20041;-81
2023/09/23 07:12:52;;;;;;;4.05;0.80;;;;;;;;;;5007373;28;20038;-82
2023/09/23 07:15:18;;;;;;;3.67;0.60;;;;;;;;;;5001383;28;20038;-81
2023/09/23 07:17:43;;;;;;;2.15;0.50;;;;;;;;;;4993521;28;20033;-82
2023/09/23 07:20:09;;;;;;;2.50;0.65;;;;;;;;;;4988621;28;20116;-85
2023/09/23 07:22:35;;;;;;;2.83;0.70;;;;;;;;;;5002356;28;20164;-82
2023/09/23 07:25:03;;;;;;;2.55;0.60;;;;;;;;;;4994514;28;20457;-83
2023/09/23 07:27:33;;;;;;;1.08;0.47;;;;;;;;;;4956520;28;20475;-83
2023/09/23 07:30:04;;;;;;;3.13;0.50;;;;;;;;;;4982224;28;20502;-84
2023/09/23 07:32:30;;;;;;;2.13;0.50;;;;;;;;;;5003308;28;20036;-83
2023/09/23 07:34:55;;;;;;;2.70;0.50;;;;;;;;;;5006059;28;20043;-84
2023/09/23 07:37:20;;;;;;;1.25;0.47;;;;;;;;;;5003326;28;20495;-84
2023/09/23 07:39:46;;;;;;;1.42;0.43;;;;;;;;;;4999912;28;20036;-84
2023/09/23 07:42:12;;;;;;;1.77;0.50;;;;;;;;;;4993847;28;20054;-83
2023/09/23 07:44:40;;;;;;;1.90;0.50;;;;;;;;;;4980569;28;20136;-82
2023/09/23 07:47:06;;;;;;;2.30;0.55;;;;;;;;;;4972253;28;20037;-83
2023/09/23 07:49:35;;;;;;;1.65;0.50;;;;;;;;;;5006581;28;20120;-81
2023/09/23 07:52:00;;;;;;;3.50;0.68;;;;;;;;;;4977737;28;20117;-78
2023/09/23 07:54:26;;;;;;;2.55;0.60;;;;;;;;;;4992642;28;20200;-79
2023/09/23 07:56:51;;;;;;;1.77;0.50;;;;;;;;;;4991356;28;20034;-79
2023/09/23 07:59:17;;;;;;;1.75;0.50;;;;;;;;;;5004776;28;20038;-80
2023/09/23 08:01:42;;;;;;;1.33;0.40;;;;;;;;;;4990501;28;20065;-79
2023/09/23 08:04:08;;;;;;;1.30;0.47;;;;;;;;;;4990253;28;20104;-79
2023/09/23 08:06:33;;;;;;;2.55;0.43;;;;;;;;;;4989893;28;20034;-79
2023/09/23 08:08:58;;;;;;;1.83;0.52;;;;;;;;;;5001761;28;20568;-79
2023/09/23 08:11:25;;;;;;;2.13;0.60;;;;;;;;;;4990795;28;20026;-79
2023/09/23 08:13:50;;;;;;;1.92;0.60;;;;;;;;;;5005332;28;20729;-79
2023/09/23 08:16:16;;;;;;;1.52;0.52;;;;;;;;;;4995182;28;20045;-79
2023/09/23 08:18:41;;;;;;;1.67;0.50;;;;;;;;;;5003114;28;20038;-78
2023/09/23 08:21:06;;;;;;;3.03;0.40;;;;;;;;;;4990987;28;20497;-79
2023/09/23 08:23:32;;;;;;;1.23;0.40;;;;;;;;;;5005026;28;20038;-77
2023/09/23 08:25:58;;;;;;;2.00;0.50;;;;;;;;;;5004183;28;20037;-78
2023/09/23 08:28:24;;;;;;;1.27;0.40;;;;;;;;;;5000637;28;20450;-78
2023/09/23 08:30:51;;;;;;;1.92;0.50;;;;;;;;;;5002602;28;20052;-78
2023/09/23 08:33:16;;;;;;;1.52;0.50;;;;;;;;;;5005770;28;20525;-77
2023/09/23 08:35:42;;;;;;;1.95;0.43;;;;;;;;;;4990786;28;20044;-77
2023/09/23 08:38:08;;;;;;;1.58;0.50;;;;;;;;;;5002966;28;20069;-77
2023/09/23 08:40:34;;;;;;;1.58;0.40;;;;;;;;;;4994676;28;20038;-78
2023/09/23 08:43:03;;;;;;;2.47;0.60;;;;;;;;;;4988621;28;20548;-78
2023/09/23 08:45:30;;;;;;;1.40;0.35;;;;;;;;;;4990602;28;20513;-78
2023/09/23 08:47:57;;;;;;;1.70;0.40;;;;;;;;;;5005747;28;20496;-78
2023/09/23 08:50:23;;;;;;;2.67;0.60;;;;;;;;;;4987884;28;20314;-78
2023/09/23 08:52:49;;;;;;;1.38;0.47;;;;;;;;;;4986411;28;20382;-78
2023/09/23 08:55:16;;;;;;;1.63;0.50;;;;;;;;;;4987041;28;20045;-78
2023/09/23 08:57:42;;;;;;;1.30;0.47;;;;;;;;;;5000787;28;20022;-78
2023/09/23 09:00:10;;;;;;;2.10;0.60;;;;;;;;;;4988971;28;20064;-78
2023/09/23 09:02:35;;;;;;;1.48;0.50;;;;;;;;;;4983134;28;20116;-79
2023/09/23 09:05:01;;;;;;;3.05;0.98;;;;;;;;;;4996773;28;20038;-77
2023/09/23 09:07:37;;;;;;;1.35;0.50;;;;;;;;;;5001686;28;20103;-78
2023/09/23 09:10:05;;;;;;;1.95;0.50;;;;;;;;;;4988734;28;20037;-78
2023/09/23 09:12:34;;;;;;;1.67;0.65;;;;;;;;;;4990544;28;20026;-77
2023/09/23 09:15:00;;;;;;;1.85;0.60;;;;;;;;;;5006465;28;20044;-77
2023/09/23 09:17:26;;;;;;;1.55;0.60;;;;;;;;;;5008482;28;20053;-77
2023/09/23 09:19:51;;;;;;;2.05;0.75;;;;;;;;;;5006954;28;20034;-77
2023/09/23 09:22:19;;;;;;;1.90;0.70;;;;;;;;;;5007634;28;20505;-77
2023/09/23 09:24:45;;;;;;;;;;;;;;;;;;5007703;28;20037;-78
2023/09/23 09:27:12;;;;;;;1.30;0.55;;;;;;;;;;5009116;28;19925;-78
2023/09/23 09:29:38;;;;;;;;;;;;;;;;;;5010322;28;20248;-78
2023/09/23 09:32:06;;;;;;;1.58;0.68;;;;;;;;;;4993823;28;19918;-78
2023/09/23 09:34:32;;;;;;;5.13;0.80;;;;;;;;;;4993868;28;20038;-79
2023/09/23 09:36:57;;;;;;;2.58;0.80;;;;;;;;;;4997802;28;20038;-78
2023/09/23 09:39:29;;;;;;;1.63;0.65;;;;;;;;;;4984045;28;20038;-78
2023/09/23 09:41:57;;;;;;;1.90;0.75;;;;;;;;;;4990907;28;20042;-78
2023/09/23 09:44:27;;;;;;;2.70;0.80;;;;;;;;;;5001198;28;20844;-78
2023/09/23 09:46:54;;;;;;;1.30;0.60;;;;;;;;;;5005437;28;20358;-78
2023/09/23 09:49:21;;;;;;;1.75;0.60;;;;;;;;;;5007900;28;20513;-78
2023/09/23 09:51:48;;;;;;;1.73;0.65;;;;;;;;;;5006305;28;20125;-78
2023/09/23 09:54:14;;;;;;;2.13;0.68;;;;;;;;;;4998838;28;20033;-78
2023/09/23 09:56:40;;;;;;;3.22;0.80;;;;;;;;;;4986771;28;20030;-78
2023/09/23 09:59:06;;;;;;;2.05;0.82;;;;;;;;;;4986279;28;20041;-79
2023/09/23 10:01:32;;;;;;;2.90;1.08;;;;;;;;;;4993342;28;20124;-78
2023/09/23 10:03:59;;;;;;;2.25;1.00;;;;;;;;;;5000497;28;20057;-78
2023/09/23 10:06:26;;;;;;;3.47;1.20;;;;;;;;;;5008710;28;20407;-78
2023/09/23 10:08:53;;;;;;;3.92;1.30;;;;;;;;;;5004195;28;20122;-78
2023/09/23 10:11:29;;;;;;;2.10;1.02;;;;;;;;;;5003363;28;21588;-77
2023/09/23 10:13:55;;;;;;;3.60;1.07;;;;;;;;;;5009704;28;20124;-77
2023/09/23 10:16:27;;;;;;;2.08;0.90;;;;;;;;;;4996328;28;20364;-77
2023/09/23 10:18:59;;;;;;;3.08;0.90;;;;;;;;;;4995087;28;20035;-78
2023/09/23 10:21:27;;;;;;;2.17;1.17;;;;;;;;;;4999763;28;20038;-78
2023/09/23 10:23:55;;;;;;;2.47;1.23;;;;;;;;;;4992695;28;20413;-78
2023/09/23 10:26:23;;;;;;;3.13;1.30;;;;;;;;;;4993831;28;20033;-78
2023/09/23 10:28:58;;;;;;;2.50;1.30;;;;;;;;;;5011857;28;21887;-78
2023/09/23 10:31:28;;;;;;;2.80;1.50;;;;;;;;;;5001210;28;20042;-78
2023/09/23 10:33:54;;;;;;;2.78;1.10;;;;;;;;;;4983954;28;20057;-79
2023/09/23 10:36:20;;;;;;;4.00;0.90;;;;;;;;;;4958746;28;20065;-79
2023/09/23 10:38:46;;;;;;;2.92;0.90;;;;;;;;;;4983720;28;20034;-78
2023/09/23 10:41:11;;;;;;;4.80;1.10;;;;;;;;;;4987123;28;20538;-78
2023/09/23 10:43:38;;;;;;;3.40;1.38;;;;;;;;;;4981956;28;20451;-78
2023/09/23 10:46:05;;;;;;;2.10;1.02;;;;;;;;;;4979861;28;20036;-78
2023/09/23 10:48:31;;;;;;;2.57;1.20;;;;;;;;;;4973335;28;20049;-78
2023/09/23 10:51:01;;;;;;;2.65;1.00;;;;;;;;;;4990207;28;20045;-78
2023/09/23 10:53:30;;;;;;;1.98;0.90;;;;;;;;;;4990998;28;20521;-78
2023/09/23 10:55:57;;;;;;;3.72;1.10;;;;;;;;;;4986614;28;20146;-78
2023/09/23 10:58:23;;;;;;;;;;;;;;;;;;4969471;28;20035;-78
2023/09/23 11:00:52;;;;;;;2.50;1.10;;;;;;;;;;5015124;28;19987;-78
2023/09/23 11:03:19;;;;;;;2.88;0.90;;;;;;;;;;4991578;28;20097;-78
2023/09/23 11:05:46;;;;;;;1.98;0.98;;;;;;;;;;4989228;28;20034;-78
2023/09/23 11:08:13;;;;;;;2.10;0.80;;;;;;;;;;4985890;28;20089;-78
2023/09/23 11:10:39;;;;;;;1.50;0.70;;;;;;;;;;4997622;28;20442;-76
2023/09/23 11:13:05;;;;;;;3.15;0.70;;;;;;;;;;4983630;28;20033;-77
2023/09/23 11:15:31;;;;;;;2.33;0.82;;;;;;;;;;5005869;28;20502;-77
2023/09/23 11:17:56;;;;;;;2.20;0.90;;;;;;;;;;5001993;28;20091;-78
2023/09/23 11:20:31;;;;;;;2.22;0.73;;;;;;;;;;5004330;28;20401;-78
2023/09/23 11:23:06;;;;;;;3.25;0.80;;;;;;;;;;5009466;28;20057;-77
2023/09/23 11:25:37;;;;;;;2.45;0.70;;;;;;;;;;5004808;28;20081;-79
2023/09/23 11:28:03;;;;;;;4.32;0.70;;;;;;;;;;4994328;28;20044;-79
2023/09/23 11:30:29;;;;;;;1.30;0.47;;;;;;;;;;5005586;28;20034;-79
2023/09/23 11:32:55;;;;;;;1.88;0.50;;;;;;;;;;5005796;28;20033;-77
2023/09/23 11:35:21;;;;;;;1.13;0.43;;;;;;;;;;4953513;28;20034;-78
2023/09/23 11:37:48;;;;;;;1.25;0.50;;;;;;;;;;4989484;28;20108;-77
2023/09/23 11:40:14;;;;;;;1.42;0.50;;;;;;;;;;5008102;28;20061;-77
2023/09/23 11:42:40;;;;;;;1.90;0.50;;;;;;;;;;5006532;28;20509;-78
2023/09/23 11:45:07;;;;;;;1.10;0.40;;;;;;;;;;5009648;28;20042;-78
2023/09/23 11:47:32;;;;;;;3.85;0.70;;;;;;;;;;5007654;28;20662;-78
2023/09/23 11:49:58;;;;;;;2.10;0.55;;;;;;;;;;5011899;28;20069;-78
2023/09/23 11:52:23;;;;;;;1.45;0.50;;;;;;;;;;5006614;28;20386;-77
2023/09/23 11:54:49;;;;;;;2.85;0.80;;;;;;;;;;5010160;28;20045;-79
2023/09/23 11:57:14;;;;;;;1.92;0.60;;;;;;;;;;4996025;28;20057;-78
2023/09/23 11:59:40;;;;;;;1.38;0.50;;;;;;;;;;4992687;28;20056;-79
2023/09/23 12:02:06;;;;;;;2.17;0.60;;;;;;;;;;4980954;28;20397;-79
2023/09/23 12:04:32;;;;;;;1.27;0.52;;;;;;;;;;5007405;28;20030;-78
2023/09/23 12:06:57;;;;;;;4.07;0.77;;;;;;;;;;5008665;28;20041;-79
2023/09/23 12:09:24;;;;;;;2.17;0.68;;;;;;;;;;4992159;28;20029;-78
2023/09/23 12:11:53;;;;;;;2.40;0.75;;;;;;;;;;4991519;28;20443;-78
2023/09/23 12:14:19;;;;;;;1.80;0.60;;;;;;;;;;4969001;28;20370;-78
2023/09/23 12:16:45;;;;;;;1.52;0.60;;;;;;;;;;4996041;28;20127;-78
2023/09/23 12:19:19;;;;;;;1.70;0.60;;;;;;;;;;5001913;28;20505;-78
2023/09/23 12:21:45;;;;;;;1.67;0.70;;;;;;;;;;4977307;28;20490;-77
2023/09/23 12:24:10;;;;;;;1.65;0.60;;;;;;;;;;4970550;28;20035;-78
2023/09/23 12:26:36;;;;;;;1.67;0.60;;;;;;;;;;5001368;28;20465;-77
2023/09/23 12:29:04;;;;;;;2.00;0.60;;;;;;;;;;4992903;28;20041;-78
2023/09/23 12:31:30;;;;;;;1.83;0.60;;;;;;;;;;5004731;28;20141;-79
2023/09/23 12:33:55;;;;;;;1.17;0.47;;;;;;;;;;5006326;28;20113;-78
2023/09/23 12:36:21;;;;;;;1.63;0.60;;;;;;;;;;4985307;28;20046;-77
2023/09/23 12:38:47;;;;;;;2.25;0.60;;;;;;;;;;4986039;28;20497;-78
2023/09/23 12:41:14;;;;;;;2.00;0.70;;;;;;;;;;5005688;28;20084;-77
2023/09/23 12:43:43;;;;;;;1.88;0.70;;;;;;;;;;5002828;28;20049;-78
2023/09/23 12:46:08;;;;;;;4.28;0.73;;;;;;;;;;4973901;28;20486;-78
2023/09/23 12:48:34;;;;;;;1.80;0.60;;;;;;;;;;4990760;28;20041;-78
2023/09/23 12:50:59;;;;;;;2.58;0.70;;;;;;;;;;4973749;28;20033;-78
2023/09/23 12:53:25;;;;;;;1.85;0.70;;;;;;;;;;4975737;28;20053;-78
2023/09/23 12:55:50;;;;;;;2.60;0.70;;;;;;;;;;4967246;28;20481;-78
2023/09/23 12:58:16;;;;;;;1.13;0.40;;;;;;;;;;4976003;28;20049;-77
2023/09/23 13:00:41;;;;;;;1.73;0.60;;;;;;;;;;4974879;28;20034;-78
2023/09/23 13:03:09;;;;;;;2.83;0.90;;;;;;;;;;4988948;28;20406;-78
2023/09/23 13:05:35;;;;;;;2.28;0.52;;;;;;;;;;4965203;28;20046;-78
2023/09/23 13:08:01;;;;;;;2.72;0.70;;;;;;;;;;4960812;28;20497;-78
2023/09/23 13:10:26;;;;;;;2.30;0.60;;;;;;;;;;4970825;28;20504;-78
2023/09/23 13:12:52;;;;;;;2.38;0.70;;;;;;;;;;4991868;28;20058;-79
2023/09/23 13:15:17;;;;;;;1.90;0.70;;;;;;;;;;4977838;28;20050;-79
2023/09/23 13:17:43;;;;;;;1.48;0.52;;;;;;;;;;4988327;28;20081;-77
2023/09/23 13:20:10;;;;;;;2.38;0.70;;;;;;;;;;4965773;28;20045;-78
2023/09/23 13:22:36;;;;;;;2.13;0.70;;;;;;;;;;4990690;28;20421;-79
2023/09/23 13:25:03;;;;;;;2.10;0.70;;;;;;;;;;4964487;28;20275;-79
2023/09/23 13:27:28;;;;;;;2.42;0.60;;;;;;;;;;4991179;28;20371;-77
2023/09/23 13:29:54;;;;;;;2.35;0.70;;;;;;;;;;4954669;28;20062;-78
2023/09/23 13:32:20;;;;;;;1.92;0.70;;;;;;;;;;4952769;28;20042;-78
2023/09/23 13:34:45;;;;;;;4.03;0.80;;;;;;;;;;4958681;28;20030;-78
2023/09/23 13:37:12;;;;;;;2.80;1.08;;;;;;;;;;4960611;28;20048;-79
2023/09/23 13:39:40;;;;;;;4.93;1.15;;;;;;;;;;4984483;28;20034;-78
2023/09/23 13:42:08;;;;;;;1.55;0.50;;;;;;;;;;4938773;28;20050;-78
2023/09/23 13:44:33;;;;;;;2.83;0.90;;;;;;;;;;4987423;28;20046;-78
2023/09/23 13:46:59;;;;;;;1.90;0.60;;;;;;;;;;4970232;28;20089;-77
2023/09/23 13:49:24;;;;;;;5.95;0.80;;;;;;;;;;4990967;28;21119;-79
2023/09/23 13:51:50;;;;;;;2.38;0.65;;;;;;;;;;4972717;28;20038;-77
2023/09/23 13:54:15;;;;;;;2.83;0.80;;;;;;;;;;5008303;28;20170;-78
2023/09/23 13:56:41;;;;;;;2.13;0.70;;;;;;;;;;4985164;28;20034;-78
2023/09/23 13:59:06;;;;;;;2.08;0.70;;;;;;;;;;4985580;28;20042;-78
2023/09/23 14:01:33;;;;;;;2.85;0.60;;;;;;;;;;4991350;28;20578;-77
2023/09/23 14:03:59;;;;;;;2.63;0.80;;;;;;;;;;4989413;28;20081;-77
2023/09/23 14:06:24;;;;;;;2.17;0.70;;;;;;;;;;4991983;28;20038;-78
2023/09/23 14:08:51;;;;;;;3.10;0.70;;;;;;;;;;4998037;28;20084;-78
2023/09/23 14:11:17;;;;;;;2.15;0.70;;;;;;;;;;4995051;28;20577;-78
2023/09/23 14:13:43;;;;;;;1.67;0.65;;;;;;;;;;4994993;28;20092;-78
2023/09/23 14:16:10;;;;;;;2.13;0.80;;;;;;;;;;4996336;28;20044;-78
2023/09/23 14:18:38;;;;;;;3.10;0.73;;;;;;;;;;5009605;28;20037;-78
2023/09/23 14:21:03;;;;;;;2.63;0.60;;;;;;;;;;4994888;28;20451;-78
2023/09/23 14:23:32;;;;;;;3.38;0.80;;;;;;;;;;5002739;28;20038;-78
2023/09/23 14:25:57;;;;;;;2.28;0.60;;;;;;;;;;4971502;28;20034;-78
2023/09/23 14:28:23;;;;;;;3.65;0.90;;;;;;;;;;4994324;28;20058;-78
2023/09/23 14:30:51;;;;;;;4.03;0.80;;;;;;;;;;4978556;28;20416;-78
2023/09/23 14:33:16;;;;;;;1.63;0.57;;;;;;;;;;4971904;28;20039;-78
2023/09/23 14:35:41;;;;;;;4.40;0.88;;;;;;;;;;4989082;28;20085;-78
2023/09/23 14:38:07;;;;;;;2.88;0.80;;;;;;;;;;4990061;28;20049;-78
2023/09/23 14:40:36;;;;;;;1.95;0.60;;;;;;;;;;4963625;28;20468;-77
2023/09/23 14:43:01;;;;;;;2.92;0.70;;;;;;;;;;4958497;28;20046;-78